Englewood, Louisiana
Current Conditions -  °F | °C
As of 2:53 AM on Sunday 23 Nov 2014 (Local Time) from KTVR Reporting Station
Light Rain Light Rain  
Wind Chill: 62°   Ceiling: 1400
Heat Index: 62°   Visibility: 10mi
Dew Point: 58°   Wind: 13mph
Humidity: 86%   Direction: 140°SE
Pressure: 29.76"   Gusts: NA
Location:  32.3599°N, 91.2529°W
Report Text: KTVR 230853Z AUTO 14011KT 10SM -RA OVC014 17/14 A2976 RMK AO2 RAB24 SLP085 P0000 60000 T01670144 56025
Loading
Personal Weather Stations






























Interactive Weather Map New forecast layout! Learn more

10-Day Weather Forecast

Advertisements
Track Severe Weather on mobile